Jackson, Montana
Current Conditions -  °F | °C
As of 4:55 PM on Thursday 18 Dec 2014 (Local Time) from KSMN Reporting Station
Broken Clouds Broken Clouds  
Wind Chill: -2°   Ceiling: 6500
Heat Index: -2°   Visibility: 10mi
Dew Point: -7°   Wind: 0mph
Humidity: 69%   Direction: NA
Pressure: 30.07"   Gusts: NA
Location:  45.37°N, 113.41°W
Report Text: KSMN 182355Z AUTO 00000KT 10SM BKN065 M02/M07 A3007 RMK AO1 11010 21040 410101090 57003
Loading
Personal Weather Stations






























Interactive Weather Map New forecast layout! Learn more

10-Day Weather Forecast

Advertisements
Track Severe Weather on mobile